»·PEaware :: AAL227 KBOS-LEMD

AAL227 :: KBOS-LEMD

FLIGHT INFORMATION

Flight Status: Arrived
Operator:
American Airlines
More flights by this operator :: More flights under this callsign
Pilot: Drew L. (13237)
Aircraft: BOEING 757-200
(B752)
More flights by this aircraft type
Origin: KBOS Logan Intl
United States
Destination: LEMD Barajas
Spain
More flights between these airports :: More routes between these airports
Route: CELTK4 CELTK FRILL WHALE N75A SUPRY/M077F330 46N050W 47N040W 47N030W 46N020W HIDRA/N0463F350 STG/N0462F370 DESAT/N0464F360 UN733 ZMR ZMR1P
File this flight plan on PilotEdge
Remarks:
Altitude:
(Current/Filed)
33,000ft
Speed:
(Current/Filed)
463kts
Departed: 26-Jul-17 08:00 PM
Arrived: 27-Jul-17 02:07 AM
Distance/Time
Traveled:
2953nm/6:06
Distance/Time
To Go:
Arrived

Flight Plot

Page will automatically refresh every two minutes.

Flight plan parsing failed; only flown route is shown


Map Options




Map Legend


Flown Route
Filed Route
Departure Airport
Arrival Airport
Navaid (VOR, NDB)
Fix

Horizontal Profiles

Position Reports

Time Latitude Longitude Heading Altitude Ground
Speed
26-Jul-17 19:55 42.369831 -71.017128 289 18ft 0kts
26-Jul-17 19:56 42.369831 -71.017128 289 18ft 0kts
26-Jul-17 19:57 42.369669 -71.016486 288 18ft 2kts
26-Jul-17 19:58 42.369448 -71.016445 41 18ft 0kts
26-Jul-17 19:59 42.369448 -71.016444 41 18ft 0kts
26-Jul-17 20:00 42.370246 -71.015596 19 18ft 5kts
26-Jul-17 20:01 42.369233 -71.013145 109 18ft 21kts
26-Jul-17 20:02 42.374034 -71.008533 19 15ft 38kts
26-Jul-17 20:03 42.362087 -71.012394 200 21ft 159kts
26-Jul-17 20:04 42.314351 -70.994744 110 1874ft 254kts
26-Jul-17 20:05 42.324802 -70.899933 78 5351ft 269kts
26-Jul-17 20:06 42.338021 -70.800917 99 8581ft 278kts
26-Jul-17 20:07 42.328794 -70.713892 99 10202ft 287kts
26-Jul-17 20:08 42.311964 -70.578376 98 11614ft 358kts
26-Jul-17 20:09 42.301308 -70.462567 97 13603ft 389kts
26-Jul-17 20:10 42.287620 -70.316149 97 16252ft 408kts
26-Jul-17 20:11 42.271277 -70.136591 98 18970ft 429kts
26-Jul-17 20:12 42.254673 -70.003528 99 20760ft 443kts
26-Jul-17 20:13 42.231493 -69.810405 89 23050ft 459kts
26-Jul-17 20:14 42.231929 -69.667395 87 24583ft 469kts
26-Jul-17 20:15 42.231790 -69.491405 86 26295ft 480kts
26-Jul-17 20:16 42.231958 -69.281318 86 28118ft 491kts
26-Jul-17 20:17 42.231742 -69.128030 87 29222ft 501kts
26-Jul-17 20:18 42.230448 -68.941766 86 30693ft 504kts
26-Jul-17 20:19 42.229026 -68.757132 86 32642ft 491kts
26-Jul-17 20:20 42.227467 -68.575898 85 33213ft 488kts
26-Jul-17 20:21 42.225566 -68.394941 85 33225ft 488kts
26-Jul-17 20:22 42.223417 -68.216178 85 33228ft 488kts
26-Jul-17 20:23 42.223661 -68.035625 86 33231ft 488kts
26-Jul-17 20:24 42.221300 -67.854684 86 33230ft 488kts
26-Jul-17 20:25 42.218333 -67.675620 86 33218ft 488kts
26-Jul-17 20:26 42.215007 -67.495423 86 33214ft 488kts
26-Jul-17 20:27 42.211395 -67.315892 87 33210ft 488kts
26-Jul-17 20:28 42.206899 -67.106118 87 33213ft 489kts
26-Jul-17 20:29 42.216619 -66.957617 68 33211ft 480kts
26-Jul-17 20:30 42.265175 -66.793869 63 33213ft 478kts
26-Jul-17 20:31 42.314543 -66.629497 64 33210ft 479kts
26-Jul-17 20:32 42.362859 -66.466240 64 33209ft 478kts
26-Jul-17 20:33 42.413451 -66.302131 64 33213ft 478kts
26-Jul-17 20:34 42.462409 -66.137811 65 33187ft 479kts
26-Jul-17 20:35 42.510707 -65.971704 65 33213ft 479kts
26-Jul-17 20:36 42.558668 -65.805160 65 33207ft 477kts
26-Jul-17 20:37 42.606067 -65.639447 64 33212ft 479kts
26-Jul-17 20:38 42.653534 -65.472390 65 33211ft 479kts
26-Jul-17 20:39 42.700524 -65.305845 65 33205ft 479kts
26-Jul-17 20:40 42.747482 -65.138354 65 33207ft 479kts
26-Jul-17 20:41 42.794285 -64.970424 66 33204ft 484kts
26-Jul-17 20:42 42.841771 -64.799164 67 33214ft 496kts
26-Jul-17 20:43 42.889439 -64.625114 67 33212ft 495kts
26-Jul-17 20:44 42.936801 -64.451189 66 33210ft 494kts
26-Jul-17 20:45 42.983926 -64.277142 67 33206ft 494kts
26-Jul-17 20:46 43.030463 -64.104035 67 33206ft 491kts
26-Jul-17 20:47 43.076769 -63.930645 67 33209ft 491kts
26-Jul-17 20:48 43.122603 -63.757770 66 33214ft 491kts
26-Jul-17 20:49 43.168339 -63.583957 67 33211ft 491kts
26-Jul-17 20:50 43.213794 -63.409925 67 33213ft 491kts
26-Jul-17 20:51 43.258943 -63.235788 67 33208ft 491kts
26-Jul-17 20:52 43.303951 -63.060889 67 33209ft 492kts
26-Jul-17 20:53 43.348762 -62.885317 67 33212ft 495kts
26-Jul-17 20:54 43.393534 -62.708962 67 33212ft 495kts
26-Jul-17 20:55 43.437948 -62.532528 67 33213ft 495kts
26-Jul-17 20:56 43.482214 -62.355290 67 33214ft 495kts
26-Jul-17 20:57 43.526361 -62.177191 67 33209ft 496kts
26-Jul-17 20:58 43.569958 -61.999912 67 33210ft 495kts
26-Jul-17 20:59 43.613425 -61.821806 67 33206ft 495kts
26-Jul-17 21:00 43.656541 -61.643722 67 33189ft 496kts
26-Jul-17 21:01 43.699431 -61.465195 67 33184ft 496kts
26-Jul-17 21:02 43.741939 -61.286879 68 33179ft 496kts
26-Jul-17 21:03 43.784265 -61.107541 68 33180ft 494kts
26-Jul-17 21:04 43.826132 -60.928776 67 33180ft 490kts
26-Jul-17 21:05 43.867457 -60.751639 67 33181ft 491kts
26-Jul-17 21:06 43.908651 -60.573232 67 33181ft 491kts
26-Jul-17 21:07 43.949499 -60.394809 67 33182ft 491kts
26-Jul-17 21:08 43.990112 -60.215949 67 33177ft 491kts
26-Jul-17 21:09 44.030375 -60.037123 67 33177ft 491kts
26-Jul-17 21:10 44.070429 -59.857765 67 33172ft 491kts
26-Jul-17 21:11 44.109970 -59.679215 67 33179ft 491kts
26-Jul-17 21:12 44.149387 -59.499740 67 33179ft 491kts
26-Jul-17 21:13 44.188668 -59.319354 68 33175ft 492kts
26-Jul-17 21:14 44.227475 -59.139546 68 33175ft 492kts
26-Jul-17 21:15 44.266122 -58.958791 68 33176ft 489kts
26-Jul-17 21:16 44.303868 -58.780702 67 33176ft 481kts
26-Jul-17 21:17 44.341319 -58.602987 67 33177ft 482kts
26-Jul-17 21:18 44.378211 -58.426060 67 33168ft 480kts
26-Jul-17 21:19 44.414488 -58.250661 68 33165ft 481kts
26-Jul-17 21:20 44.450948 -58.072784 68 33164ft 481kts
26-Jul-17 21:21 44.487020 -57.895203 68 33165ft 481kts
26-Jul-17 21:22 44.522932 -57.716838 68 33166ft 480kts
26-Jul-17 21:23 44.558549 -57.538327 68 33166ft 480kts
26-Jul-17 21:24 44.593816 -57.359986 68 33166ft 480kts
26-Jul-17 21:25 44.628913 -57.180852 68 33162ft 481kts
26-Jul-17 21:26 44.664183 -57.000268 70 33162ft 493kts
26-Jul-17 21:27 44.699818 -56.815214 72 33167ft 499kts
26-Jul-17 21:28 44.735113 -56.628653 72 33167ft 498kts
26-Jul-17 21:29 44.770264 -56.442108 72 33169ft 499kts
26-Jul-17 21:30 44.805048 -56.255799 72 33163ft 499kts
26-Jul-17 21:31 44.839603 -56.068926 73 33149ft 499kts
26-Jul-17 21:32 44.873942 -55.881237 73 33105ft 498kts
26-Jul-17 21:33 44.907803 -55.694399 73 33110ft 499kts
26-Jul-17 21:34 44.941395 -55.506991 73 33110ft 499kts
26-Jul-17 21:35 44.974652 -55.319445 73 33107ft 499kts
26-Jul-17 21:36 45.007641 -55.131453 73 33098ft 503kts
26-Jul-17 21:37 45.041937 -54.937363 77 33116ft 525kts
26-Jul-17 21:38 45.075406 -54.739595 76 33119ft 520kts
26-Jul-17 21:39 45.108159 -54.546413 75 33109ft 511kts
26-Jul-17 21:40 45.140392 -54.355033 75 33116ft 508kts
26-Jul-17 21:41 45.172443 -54.162329 76 33114ft 509kts
26-Jul-17 21:42 45.204072 -53.969825 76 33109ft 508kts
26-Jul-17 21:43 45.235538 -53.776158 76 33111ft 508kts
26-Jul-17 21:44 45.266509 -53.583277 76 33110ft 508kts
26-Jul-17 21:45 45.297231 -53.389836 76 33115ft 508kts
26-Jul-17 21:46 45.327619 -53.196138 77 33107ft 508kts
26-Jul-17 21:47 45.357609 -53.002720 77 33101ft 511kts
26-Jul-17 21:48 45.388815 -52.802685 82 33087ft 537kts
26-Jul-17 21:49 45.419947 -52.593149 82 33128ft 557kts
26-Jul-17 21:50 45.451797 -52.379397 82 33124ft 558kts
26-Jul-17 21:51 45.483383 -52.164794 83 33107ft 559kts
26-Jul-17 21:52 45.518511 -51.952332 71 33111ft 565kts
26-Jul-17 21:53 45.575010 -51.744974 72 33115ft 565kts
26-Jul-17 21:54 45.628671 -51.537186 73 33114ft 566kts
26-Jul-17 21:55 45.681891 -51.328202 74 33113ft 566kts
26-Jul-17 21:56 45.734470 -51.119788 73 33109ft 566kts
26-Jul-17 21:57 45.787402 -50.908485 74 33115ft 577kts
26-Jul-17 21:58 45.840909 -50.692159 75 33123ft 581kts
26-Jul-17 21:59 45.893837 -50.475964 75 33128ft 581kts
26-Jul-17 22:00 45.946559 -50.259055 75 33112ft 583kts
26-Jul-17 22:01 45.998725 -50.041468 77 33122ft 581kts
26-Jul-17 22:02 46.033432 -49.819336 84 33113ft 577kts
26-Jul-17 22:03 46.065350 -49.596761 84 33125ft 575kts
26-Jul-17 22:04 46.096778 -49.373943 84 33135ft 576kts
26-Jul-17 22:05 46.127817 -49.150271 84 33094ft 573kts
26-Jul-17 22:06 46.158165 -48.926886 83 33107ft 577kts
26-Jul-17 22:07 46.188617 -48.702401 83 33108ft 576kts
26-Jul-17 22:08 46.218456 -48.477502 83 33113ft 576kts
26-Jul-17 22:09 46.247523 -48.254928 83 33101ft 575kts
26-Jul-17 22:10 46.276474 -48.029239 83 33106ft 576kts
26-Jul-17 22:11 46.304855 -47.804617 83 33112ft 576kts
26-Jul-17 22:12 46.332888 -47.579065 84 33112ft 576kts
26-Jul-17 22:13 46.360420 -47.353463 83 33118ft 577kts
26-Jul-17 22:14 46.387472 -47.128079 84 33108ft 576kts
26-Jul-17 22:15 46.413983 -46.902413 84 33108ft 576kts
26-Jul-17 22:16 46.440246 -46.676070 82 33114ft 576kts
26-Jul-17 22:17 46.466110 -46.449453 83 33118ft 576kts
26-Jul-17 22:18 46.491391 -46.223583 84 33093ft 575kts
26-Jul-17 22:19 46.516182 -45.997233 84 33091ft 575kts
26-Jul-17 22:20 46.540608 -45.770226 84 33095ft 575kts
26-Jul-17 22:21 46.560532 -45.581563 84 33098ft 575kts
26-Jul-17 22:22 46.584136 -45.353999 84 33103ft 575kts
26-Jul-17 22:23 46.611018 -45.089274 85 33091ft 574kts
26-Jul-17 22:24 46.633310 -44.864535 84 33094ft 562kts
26-Jul-17 22:25 46.651461 -44.678493 84 33097ft 563kts
26-Jul-17 22:26 46.672731 -44.456010 84 33101ft 563kts
26-Jul-17 22:27 46.697097 -44.195326 85 33090ft 563kts
26-Jul-17 22:28 46.717481 -43.971685 85 33093ft 563kts
26-Jul-17 22:29 46.737435 -43.747987 85 33097ft 563kts
26-Jul-17 22:30 46.753728 -43.561438 85 33100ft 563kts
26-Jul-17 22:31 46.772855 -43.337782 86 33100ft 563kts
26-Jul-17 22:32 46.791550 -43.113797 86 33092ft 559kts
26-Jul-17 22:33 46.812483 -42.856244 85 33095ft 553kts
26-Jul-17 22:34 46.827121 -42.672186 85 33098ft 553kts
26-Jul-17 22:35 46.847024 -42.414901 85 33102ft 553kts
26-Jul-17 22:36 46.863572 -42.195223 86 33092ft 552kts
26-Jul-17 22:37 46.877107 -42.010818 86 33094ft 553kts
26-Jul-17 22:38 46.892935 -41.789839 86 33097ft 555kts
26-Jul-17 22:39 46.908443 -41.567207 86 33101ft 559kts
26-Jul-17 22:40 46.926106 -41.305916 87 33091ft 562kts
26-Jul-17 22:41 46.940879 -41.079662 87 33094ft 565kts
26-Jul-17 22:42 46.952826 -40.891279 87 33096ft 564kts
26-Jul-17 22:43 46.966781 -40.665342 87 33100ft 564kts
26-Jul-17 22:44 46.980283 -40.439140 87 33103ft 567kts
26-Jul-17 22:45 46.993485 -40.210912 88 33091ft 569kts
26-Jul-17 22:46 47.005687 -39.981674 88 33095ft 571kts
26-Jul-17 22:47 47.015475 -39.752130 89 33099ft 574kts
26-Jul-17 22:48 47.024798 -39.520956 88 33103ft 575kts
26-Jul-17 22:49 47.033658 -39.290087 90 33089ft 576kts
26-Jul-17 22:50 47.042011 -39.057943 90 33095ft 577kts
26-Jul-17 22:51 47.049881 -38.826813 89 33097ft 571kts
26-Jul-17 22:52 47.058474 -38.558657 89 33115ft 572kts
26-Jul-17 22:53 47.064250 -38.365883 89 33168ft 573kts
26-Jul-17 22:54 47.070662 -38.138022 90 33156ft 573kts
26-Jul-17 22:55 47.076684 -37.907473 90 33160ft 572kts
26-Jul-17 22:56 47.082232 -37.677063 90 33164ft 572kts
26-Jul-17 22:57 47.087318 -37.446447 90 33168ft 573kts
26-Jul-17 22:58 47.091970 -37.215998 91 33155ft 572kts
26-Jul-17 22:59 47.096027 -36.986302 90 33158ft 568kts
26-Jul-17 23:00 47.099758 -36.757575 90 33162ft 568kts
26-Jul-17 23:01 47.102997 -36.528764 90 33160ft 568kts
26-Jul-17 23:02 47.105784 -36.299583 91 33148ft 568kts
26-Jul-17 23:03 47.108068 -36.071545 91 33152ft 568kts
26-Jul-17 23:04 47.110019 -35.843445 92 33154ft 565kts
26-Jul-17 23:05 47.111314 -35.615503 92 33158ft 565kts
26-Jul-17 23:06 47.112250 -35.388124 92 33162ft 565kts
26-Jul-17 23:07 47.112745 -35.160559 93 33150ft 565kts
26-Jul-17 23:08 47.112743 -34.933274 93 33153ft 563kts
26-Jul-17 23:09 47.112331 -34.707758 92 33157ft 560kts
26-Jul-17 23:10 47.111518 -34.481458 92 33160ft 560kts
26-Jul-17 23:11 47.110256 -34.256988 93 33148ft 559kts
26-Jul-17 23:12 47.108495 -34.030959 93 33152ft 559kts
26-Jul-17 23:13 47.106318 -33.805747 93 33155ft 560kts
26-Jul-17 23:14 47.103696 -33.580198 93 33159ft 559kts
26-Jul-17 23:15 47.100657 -33.356150 93 33162ft 560kts
26-Jul-17 23:16 47.097152 -33.130293 94 33151ft 559kts
26-Jul-17 23:17 47.093158 -32.904899 93 33154ft 557kts
26-Jul-17 23:18 47.088863 -32.682270 93 33158ft 556kts
26-Jul-17 23:19 47.084121 -32.458549 93 33160ft 556kts
26-Jul-17 23:20 47.078874 -32.234686 94 33149ft 556kts
26-Jul-17 23:21 47.073199 -32.011249 94 33153ft 556kts
26-Jul-17 23:22 47.067075 -31.786742 94 33156ft 556kts
26-Jul-17 23:23 47.060574 -31.563924 94 33159ft 556kts
26-Jul-17 23:24 47.053581 -31.339586 95 33159ft 556kts
26-Jul-17 23:25 47.046179 -31.116942 95 33151ft 555kts
26-Jul-17 23:26 47.038335 -30.894359 94 33155ft 554kts
26-Jul-17 23:27 47.030127 -30.671192 94 33158ft 553kts
26-Jul-17 23:28 47.021491 -30.449423 94 33161ft 552kts
26-Jul-17 23:29 47.012472 -30.228623 95 33150ft 550kts
26-Jul-17 23:30 47.002726 -30.008253 96 33153ft 548kts
26-Jul-17 23:31 46.990505 -29.788360 96 33156ft 547kts
26-Jul-17 23:32 46.977792 -29.569374 96 33158ft 545kts
26-Jul-17 23:33 46.964706 -29.351435 96 33161ft 543kts
26-Jul-17 23:34 46.951300 -29.134617 97 33151ft 541kts
26-Jul-17 23:35 46.937462 -28.919234 97 33154ft 539kts
26-Jul-17 23:36 46.923240 -28.703147 97 33157ft 538kts
26-Jul-17 23:37 46.908824 -28.489659 97 33159ft 536kts
26-Jul-17 23:38 46.894098 -28.277774 97 33152ft 534kts
26-Jul-17 23:39 46.878748 -28.063340 97 34072ft 536kts
26-Jul-17 23:40 46.863225 -27.851834 97 35809ft 529kts
26-Jul-17 23:41 46.847386 -27.641513 97 37146ft 525kts
26-Jul-17 23:42 46.831235 -27.432211 97 37149ft 525kts
26-Jul-17 23:43 46.814722 -27.223071 98 37149ft 524kts
26-Jul-17 23:44 46.797766 -27.014228 98 37154ft 525kts
26-Jul-17 23:45 46.780460 -26.805422 97 37156ft 526kts
26-Jul-17 23:46 46.762759 -26.595507 97 37159ft 526kts
26-Jul-17 23:47 46.744705 -26.386787 97 37161ft 526kts
26-Jul-17 23:48 46.726202 -26.177383 98 37153ft 526kts
26-Jul-17 23:49 46.707482 -25.969798 98 37155ft 526kts
26-Jul-17 23:50 46.688200 -25.760848 98 37157ft 526kts
26-Jul-17 23:51 46.668597 -25.552468 98 37160ft 526kts
26-Jul-17 23:52 46.648606 -25.344068 99 37161ft 526kts
26-Jul-17 23:53 46.628258 -25.136140 99 37154ft 525kts
26-Jul-17 23:54 46.607626 -24.929643 98 37155ft 521kts
26-Jul-17 23:55 46.586732 -24.723487 98 37158ft 521kts
26-Jul-17 23:56 46.565514 -24.518311 98 37159ft 521kts
26-Jul-17 23:57 46.543828 -24.312307 99 37153ft 521kts
26-Jul-17 23:58 46.521790 -24.106801 99 37154ft 521kts
26-Jul-17 23:59 46.499416 -23.901705 99 37156ft 521kts
27-Jul-17 00:00 46.476647 -23.696506 99 37158ft 521kts
27-Jul-17 00:01 46.453547 -23.491788 99 37160ft 521kts
27-Jul-17 00:02 46.430095 -23.287218 100 37151ft 521kts
27-Jul-17 00:03 46.406259 -23.082917 100 37154ft 521kts
27-Jul-17 00:04 46.382183 -22.879589 100 37156ft 517kts
27-Jul-17 00:05 46.357843 -22.677462 100 37158ft 516kts
27-Jul-17 00:06 46.333171 -22.475630 100 37159ft 516kts
27-Jul-17 00:07 46.308165 -22.274011 101 37152ft 515kts
27-Jul-17 00:08 46.282889 -22.073459 101 37154ft 515kts
27-Jul-17 00:09 46.257151 -21.872132 101 37156ft 515kts
27-Jul-17 00:10 46.231085 -21.671175 101 37158ft 515kts
27-Jul-17 00:11 46.204717 -21.470794 101 37160ft 516kts
27-Jul-17 00:12 46.177990 -21.270423 102 37152ft 515kts
27-Jul-17 00:13 46.150925 -21.070534 102 37155ft 515kts
27-Jul-17 00:14 46.123510 -20.870630 102 37156ft 514kts
27-Jul-17 00:15 46.095799 -20.671519 102 37158ft 514kts
27-Jul-17 00:16 46.067693 -20.472165 102 37160ft 514kts
27-Jul-17 00:17 46.039306 -20.273358 102 37152ft 514kts
27-Jul-17 00:18 46.010557 -20.074839 102 37155ft 514kts
27-Jul-17 00:19 45.976930 -19.878000 105 37156ft 514kts
27-Jul-17 00:20 45.941442 -19.681593 105 37158ft 514kts
27-Jul-17 00:21 45.905632 -19.485947 105 37159ft 514kts
27-Jul-17 00:22 45.869485 -19.290539 106 37152ft 513kts
27-Jul-17 00:23 45.833034 -19.095456 106 37154ft 514kts
27-Jul-17 00:24 45.796158 -18.900175 107 37155ft 515kts
27-Jul-17 00:25 45.758861 -18.705008 107 37156ft 515kts
27-Jul-17 00:26 45.721263 -18.510049 107 37118ft 515kts
27-Jul-17 00:27 45.683598 -18.316639 107 37100ft 515kts
27-Jul-17 00:28 45.645403 -18.122518 107 37100ft 515kts
27-Jul-17 00:29 45.606774 -17.928133 107 37102ft 515kts
27-Jul-17 00:30 45.567984 -17.734829 107 37103ft 515kts
27-Jul-17 00:31 45.528607 -17.540501 107 37105ft 515kts
27-Jul-17 00:32 45.489037 -17.347116 108 37107ft 515kts
27-Jul-17 00:33 45.449079 -17.153697 108 37100ft 515kts
27-Jul-17 00:34 45.408979 -16.961365 108 37101ft 516kts
27-Jul-17 00:35 45.368359 -16.768257 109 37103ft 518kts
27-Jul-17 00:36 45.327119 -16.574468 109 37104ft 518kts
27-Jul-17 00:37 45.285660 -16.381270 109 37107ft 518kts
27-Jul-17 00:38 45.243759 -16.187760 110 37099ft 518kts
27-Jul-17 00:39 45.201583 -15.994826 110 37100ft 518kts
27-Jul-17 00:40 45.159264 -15.802958 110 37102ft 518kts
27-Jul-17 00:41 45.116362 -15.610199 110 37104ft 518kts
27-Jul-17 00:42 45.073771 -15.420638 109 37105ft 509kts
27-Jul-17 00:43 45.031359 -15.233477 110 37098ft 501kts
27-Jul-17 00:44 44.989344 -15.049655 109 37100ft 493kts
27-Jul-17 00:45 44.947827 -14.869457 109 37100ft 486kts
27-Jul-17 00:46 44.906195 -14.690153 109 37101ft 486kts
27-Jul-17 00:47 44.871290 -14.541042 109 37104ft 486kts
27-Jul-17 00:48 44.829222 -14.362667 109 37104ft 486kts
27-Jul-17 00:49 44.779657 -14.154311 110 37101ft 486kts
27-Jul-17 00:50 44.736895 -13.976108 110 37102ft 486kts
27-Jul-17 00:51 44.693965 -13.798644 110 37102ft 486kts
27-Jul-17 00:52 44.650558 -13.620594 110 37103ft 486kts
27-Jul-17 00:53 44.614363 -13.473182 110 37103ft 486kts
27-Jul-17 00:54 44.563192 -13.266383 111 37100ft 486kts
27-Jul-17 00:55 44.519124 -13.089774 111 37101ft 486kts
27-Jul-17 00:56 44.468757 -12.917338 115 37102ft 485kts
27-Jul-17 00:57 44.423851 -12.775312 115 37102ft 485kts
27-Jul-17 00:58 44.369454 -12.604922 115 37102ft 485kts
27-Jul-17 00:59 44.314776 -12.434868 115 37103ft 485kts
27-Jul-17 01:00 44.260037 -12.265731 116 37099ft 485kts
27-Jul-17 01:01 44.204987 -12.096749 116 37100ft 485kts
27-Jul-17 01:02 44.149594 -11.927778 116 37100ft 485kts
27-Jul-17 01:03 44.093924 -11.759028 116 37101ft 485kts
27-Jul-17 01:04 44.038152 -11.591038 116 37102ft 485kts
27-Jul-17 01:05 43.982169 -11.423443 116 37102ft 484kts
27-Jul-17 01:06 43.928770 -11.264591 117 37098ft 484kts
27-Jul-17 01:07 43.872786 -11.099063 117 37102ft 484kts
27-Jul-17 01:08 43.806584 -10.904608 117 37102ft 485kts
27-Jul-17 01:09 43.758977 -10.765632 117 37103ft 485kts
27-Jul-17 01:10 43.701747 -10.599476 117 37103ft 485kts
27-Jul-17 01:11 43.639751 -10.402672 111 37106ft 487kts
27-Jul-17 01:12 43.587718 -10.234823 117 37101ft 485kts
27-Jul-17 01:13 43.530438 -10.068816 117 37101ft 485kts
27-Jul-17 01:14 43.482028 -9.931222 117 37101ft 485kts
27-Jul-17 01:15 43.423631 -9.766499 118 37102ft 485kts
27-Jul-17 01:16 43.364904 -9.601891 118 37102ft 485kts
27-Jul-17 01:17 43.306179 -9.438269 118 37106ft 485kts
27-Jul-17 01:18 43.248001 -9.277106 118 37099ft 485kts
27-Jul-17 01:19 43.188499 -9.113270 118 37100ft 485kts
27-Jul-17 01:20 43.129022 -8.950454 118 37111ft 487kts
27-Jul-17 01:21 43.068815 -8.786576 118 37122ft 488kts
27-Jul-17 01:22 43.008498 -8.623320 118 37128ft 485kts
27-Jul-17 01:23 42.948577 -8.462130 118 37128ft 480kts
27-Jul-17 01:24 42.885454 -8.322136 124 37129ft 474kts
27-Jul-17 01:25 42.814257 -8.173537 125 37129ft 474kts
27-Jul-17 01:26 42.742940 -8.025972 125 37129ft 474kts
27-Jul-17 01:27 42.670716 -7.877381 125 37138ft 480kts
27-Jul-17 01:28 42.598057 -7.728624 125 37132ft 479kts
27-Jul-17 01:29 42.525031 -7.579860 125 37130ft 479kts
27-Jul-17 01:30 42.451772 -7.431370 125 37130ft 480kts
27-Jul-17 01:31 42.378873 -7.284331 125 37127ft 479kts
27-Jul-17 01:32 42.305293 -7.136642 125 37132ft 482kts
27-Jul-17 01:33 42.230420 -6.987166 125 37150ft 490kts
27-Jul-17 01:34 42.154914 -6.837090 125 37155ft 491kts
27-Jul-17 01:35 42.079129 -6.687192 125 37156ft 491kts
27-Jul-17 01:36 42.003079 -6.537556 125 37157ft 491kts
27-Jul-17 01:37 41.927259 -6.389108 125 37157ft 491kts
27-Jul-17 01:38 41.851913 -6.242292 126 37154ft 491kts
27-Jul-17 01:39 41.785489 -6.113475 126 37155ft 491kts
27-Jul-17 01:40 41.767703 -6.079074 126 37155ft 491kts
27-Jul-17 01:41 41.690987 -5.931124 126 37155ft 491kts
27-Jul-17 01:42 41.613951 -5.783280 126 37156ft 491kts
27-Jul-17 01:43 41.535026 -5.636967 134 37154ft 489kts
27-Jul-17 01:44 41.437652 -5.514826 138 37009ft 486kts
27-Jul-17 01:45 41.341584 -5.397361 139 35383ft 472kts
27-Jul-17 01:46 41.251216 -5.287604 139 33954ft 475kts
27-Jul-17 01:47 41.157608 -5.174374 139 31851ft 462kts
27-Jul-17 01:48 41.063216 -5.060661 140 28797ft 465kts
27-Jul-17 01:49 40.970646 -4.949675 139 26429ft 448kts
27-Jul-17 01:50 40.882448 -4.844269 139 24001ft 436kts
27-Jul-17 01:51 40.794979 -4.740082 139 21780ft 424kts
27-Jul-17 01:52 40.709361 -4.638489 139 20273ft 417kts
27-Jul-17 01:53 40.624649 -4.538353 139 18889ft 410kts
27-Jul-17 01:54 40.541661 -4.440605 139 17508ft 402kts
27-Jul-17 01:55 40.460474 -4.345304 139 16134ft 394kts
27-Jul-17 01:56 40.382228 -4.249362 127 15104ft 390kts
27-Jul-17 01:57 40.343871 -4.119642 108 13276ft 383kts
27-Jul-17 01:58 40.311454 -3.990579 108 11300ft 372kts
27-Jul-17 01:59 40.279716 -3.873215 102 10859ft 320kts
27-Jul-17 02:00 40.291467 -3.768721 75 10475ft 277kts
27-Jul-17 02:01 40.306121 -3.687858 74 10023ft 196kts
27-Jul-17 02:02 40.302484 -3.621729 114 8444ft 192kts
27-Jul-17 02:03 40.279613 -3.560627 114 6972ft 186kts
27-Jul-17 02:04 40.290180 -3.509304 29 5538ft 170kts
27-Jul-17 02:05 40.330126 -3.478515 29 4751ft 169kts
27-Jul-17 02:06 40.373624 -3.459329 328 3621ft 174kts
27-Jul-17 02:07 40.405796 -3.496098 320 3037ft 145kts
27-Jul-17 02:08 40.437330 -3.528461 321 2518ft 144kts
27-Jul-17 02:09 40.468723 -3.559867 322 1966ft 137kts
27-Jul-17 02:10 40.483986 -3.572367 352 1997ft 36kts
27-Jul-17 02:11 40.488599 -3.568334 90 1973ft 27kts
27-Jul-17 02:12 40.490823 -3.566451 269 1961ft 0kts
27-Jul-17 02:13 40.490823 -3.566451 269 1961ft 0kts
27-Jul-17 02:14 40.490823 -3.566451 269 1961ft 0kts

Navigation Log

Ident Type
Flight plan parsing failed, navigation log unavailable